createdAt,value
2022-10-15T00:00:21.427Z,99642.34
2022-10-15T00:02:49.288Z,99655.00
2022-10-15T00:05:17.392Z,99653.94
2022-10-15T00:07:45.297Z,99659.59
2022-10-15T00:10:13.247Z,99659.66
2022-10-15T00:12:41.713Z,99665.97
2022-10-15T00:15:11.318Z,99648.16
2022-10-15T00:17:40.784Z,99651.53
2022-10-15T00:20:11.609Z,99651.47
2022-10-15T00:22:39.868Z,99651.22
2022-10-15T00:25:08.699Z,99632.59
2022-10-15T00:27:36.728Z,99646.09
2022-10-15T00:30:05.925Z,99641.97
2022-10-15T00:32:34.844Z,99641.94
2022-10-15T00:35:04.182Z,99639.19
2022-10-15T00:37:31.996Z,99624.63
2022-10-15T00:39:59.902Z,99645.75
2022-10-15T00:42:27.777Z,99646.25
2022-10-15T00:44:57.976Z,99644.09
2022-10-15T00:47:33.874Z,99644.91
2022-10-15T00:50:07.184Z,99643.84
2022-10-15T00:52:40.775Z,99623.56
2022-10-15T00:55:13.559Z,99643.34
2022-10-15T00:57:43.550Z,99647.94
2022-10-15T01:00:15.145Z,99632.34
2022-10-15T01:02:43.315Z,99641.66
2022-10-15T01:05:14.082Z,99632.63
2022-10-15T01:07:41.919Z,99630.44
2022-10-15T01:10:11.830Z,99634.56
2022-10-15T01:13:08.131Z,99627.47
2022-10-15T01:15:45.701Z,99612.09
2022-10-15T01:18:17.165Z,99616.25
2022-10-15T01:21:04.955Z,99619.53
2022-10-15T01:24:18.361Z,99625.81
2022-10-15T01:27:16.124Z,99623.34
2022-10-15T01:30:02.723Z,99612.97
2022-10-15T01:32:37.386Z,99614.88
2022-10-15T01:35:16.535Z,99615.41
2022-10-15T01:37:51.743Z,99619.84
2022-10-15T01:40:25.810Z,99622.53
2022-10-15T01:42:58.120Z,99612.41
2022-10-15T01:45:30.759Z,99610.25
2022-10-15T01:48:04.188Z,99616.25
2022-10-15T01:50:35.211Z,99616.53
2022-10-15T01:53:06.994Z,99612.72
2022-10-15T01:55:37.842Z,99608.59
2022-10-15T01:58:06.735Z,99607.28
2022-10-15T02:00:34.494Z,99596.63
2022-10-15T02:03:04.930Z,99598.50
2022-10-15T02:05:39.820Z,99585.66
2022-10-15T02:08:18.958Z,99597.13
2022-10-15T02:10:53.238Z,99595.78
2022-10-15T02:13:30.663Z,99590.56
2022-10-15T02:16:07.871Z,99588.16
2022-10-15T02:18:44.268Z,99590.59
2022-10-15T02:21:17.645Z,99581.25
2022-10-15T02:23:50.079Z,99584.84
2022-10-15T02:26:18.744Z,99591.16
2022-10-15T02:28:52.126Z,99599.59
2022-10-15T02:31:21.718Z,99605.13
2022-10-15T02:33:53.098Z,99599.41
2022-10-15T02:36:21.750Z,99593.06
2022-10-15T02:38:51.373Z,99594.16
2022-10-15T02:41:20.040Z,99597.44
2022-10-15T02:43:48.290Z,99597.19
2022-10-15T02:46:18.756Z,99614.69
2022-10-15T02:48:46.547Z,99611.19
2022-10-15T02:51:15.674Z,99606.88
2022-10-15T02:53:43.452Z,99610.66
2022-10-15T02:56:11.360Z,99610.38
2022-10-15T02:58:39.188Z,99601.59
2022-10-15T03:01:07.337Z,99599.44
2022-10-15T03:03:35.251Z,99601.84
2022-10-15T03:06:03.195Z,99593.94
2022-10-15T03:08:32.765Z,99592.03
2022-10-15T03:11:01.434Z,99580.81
2022-10-15T03:13:29.482Z,99577.28
2022-10-15T03:15:57.614Z,99593.41
2022-10-15T03:18:25.622Z,99596.50
2022-10-15T03:20:57.164Z,99591.31
2022-10-15T03:23:25.378Z,99597.00
2022-10-15T03:25:54.927Z,99598.63
2022-10-15T03:28:23.268Z,99578.63
2022-10-15T03:30:51.146Z,99604.06
2022-10-15T03:33:20.773Z,99604.91
2022-10-15T03:35:51.960Z,99594.22
2022-10-15T03:38:19.957Z,99595.31
2022-10-15T03:40:47.984Z,99596.69
2022-10-15T03:43:17.214Z,99607.44
2022-10-15T03:45:45.023Z,99618.38
2022-10-15T03:48:12.880Z,99613.41
2022-10-15T03:50:40.839Z,99606.31
2022-10-15T03:53:08.766Z,99612.84
2022-10-15T03:55:36.844Z,99616.97
2022-10-15T03:58:04.702Z,99619.69
2022-10-15T04:00:33.947Z,99617.75
2022-10-15T04:03:01.760Z,99615.31
2022-10-15T04:05:29.566Z,99609.03
2022-10-15T04:07:58.102Z,99611.50
2022-10-15T04:10:25.951Z,99613.41
2022-10-15T04:12:53.843Z,99616.41
2022-10-15T04:15:21.648Z,99610.59
2022-10-15T04:17:54.555Z,99614.16
2022-10-15T04:20:22.384Z,99618.28
2022-10-15T04:22:50.197Z,99628.66
2022-10-15T04:25:18.352Z,99618.03
2022-10-15T04:27:46.119Z,99624.00
2022-10-15T04:30:14.541Z,99626.50
2022-10-15T04:32:42.375Z,99624.31
2022-10-15T04:35:11.791Z,99626.22
2022-10-15T04:37:39.689Z,99640.75
2022-10-15T04:40:09.221Z,99625.31
2022-10-15T04:42:36.911Z,99639.31
2022-10-15T04:45:05.361Z,99633.03
2022-10-15T04:47:33.191Z,99639.09
2022-10-15T04:50:00.969Z,99636.28
2022-10-15T04:52:30.240Z,99639.94
2022-10-15T04:54:58.578Z,99632.53
2022-10-15T04:57:26.952Z,99634.41
2022-10-15T04:59:57.656Z,99635.25
2022-10-15T05:02:26.006Z,99640.91
2022-10-15T05:04:53.972Z,99634.69
2022-10-15T05:07:22.083Z,99650.00
2022-10-15T05:09:51.613Z,99629.44
2022-10-15T05:12:20.426Z,99630.88
2022-10-15T05:14:48.214Z,99652.66
2022-10-15T05:17:16.127Z,99649.41
2022-10-15T05:19:43.918Z,99634.84
2022-10-15T05:22:11.793Z,99629.44
2022-10-15T05:24:39.671Z,99628.81
2022-10-15T05:27:08.932Z,99633.50
2022-10-15T05:29:38.171Z,99658.44
2022-10-15T05:32:06.364Z,99653.47
2022-10-15T05:34:34.367Z,99657.84
2022-10-15T05:37:02.090Z,99663.03
2022-10-15T05:39:29.871Z,99661.41
2022-10-15T05:41:58.091Z,99658.84
2022-10-15T05:44:27.313Z,99663.56
2022-10-15T05:46:55.056Z,99673.69
2022-10-15T05:49:22.973Z,99677.22
2022-10-15T05:51:50.751Z,99676.31
2022-10-15T05:54:18.599Z,99690.88
2022-10-15T05:56:46.526Z,99695.19
2022-10-15T05:59:14.290Z,99699.63
2022-10-15T06:01:43.457Z,99692.75
2022-10-15T06:04:11.745Z,99684.91
2022-10-15T06:06:39.562Z,99697.50
2022-10-15T06:09:07.308Z,99697.72
2022-10-15T06:11:35.071Z,99701.56
2022-10-15T06:14:02.946Z,99707.59
2022-10-15T06:16:30.723Z,99708.34
2022-10-15T06:18:59.887Z,99722.00
2022-10-15T06:21:28.336Z,99727.28
2022-10-15T06:23:56.047Z,99725.31
2022-10-15T06:26:23.793Z,99727.47
2022-10-15T06:28:51.589Z,99726.41
2022-10-15T06:31:19.490Z,99711.88
2022-10-15T06:33:47.271Z,99722.00
2022-10-15T06:36:16.749Z,99720.06
2022-10-15T06:38:45.013Z,99724.72
2022-10-15T06:41:12.811Z,99728.78
2022-10-15T06:43:40.666Z,99724.72
2022-10-15T06:46:08.518Z,99729.03
2022-10-15T06:48:36.455Z,99740.03
2022-10-15T06:51:05.525Z,99748.22
2022-10-15T06:53:35.035Z,99745.47
2022-10-15T06:56:04.206Z,99749.63
2022-10-15T06:58:32.242Z,99760.22
2022-10-15T07:01:01.751Z,99773.88
2022-10-15T07:03:29.843Z,99779.06
2022-10-15T07:05:57.832Z,99779.66
2022-10-15T07:08:26.577Z,99776.56
2022-10-15T07:10:55.761Z,99775.72
2022-10-15T07:13:23.564Z,99778.50
2022-10-15T07:15:54.035Z,99773.50
2022-10-15T07:18:21.900Z,99777.09
2022-10-15T07:20:49.767Z,99786.38
2022-10-15T07:23:25.509Z,99792.41
2022-10-15T07:25:58.497Z,99774.53
2022-10-15T07:28:26.737Z,99773.25
2022-10-15T07:30:54.736Z,99787.88
2022-10-15T07:33:22.534Z,99791.91
2022-10-15T07:35:50.315Z,99792.47
2022-10-15T07:38:18.274Z,99786.69
2022-10-15T07:40:46.055Z,99804.47
2022-10-15T07:43:15.867Z,99810.25
2022-10-15T07:45:48.253Z,99800.81
2022-10-15T07:48:16.201Z,99792.63
2022-10-15T07:50:44.130Z,99794.22
2022-10-15T07:53:11.918Z,99801.09
2022-10-15T07:55:39.685Z,99804.72
2022-10-15T07:58:08.413Z,99808.06
2022-10-15T08:00:37.673Z,99807.31
2022-10-15T08:03:05.830Z,99811.66
2022-10-15T08:05:34.398Z,99818.16
2022-10-15T08:08:02.334Z,99798.66
2022-10-15T08:10:30.375Z,99821.72
2022-10-15T08:12:58.123Z,99815.09
2022-10-15T08:15:25.848Z,99807.78
2022-10-15T08:17:54.980Z,99818.84
2022-10-15T08:20:22.830Z,99816.56
2022-10-15T08:22:50.607Z,99823.16
2022-10-15T08:25:18.547Z,99817.31
2022-10-15T08:27:46.446Z,99818.03
2022-10-15T08:30:14.318Z,99824.50
2022-10-15T08:32:42.119Z,99817.22
2022-10-15T08:35:11.446Z,99820.50
2022-10-15T08:37:39.373Z,99825.41
2022-10-15T08:40:08.622Z,99819.16
2022-10-15T08:42:39.474Z,99834.53
2022-10-15T08:45:13.451Z,99831.13
2022-10-15T08:47:46.803Z,99838.66
2022-10-15T08:50:27.330Z,99837.63
2022-10-15T08:52:57.931Z,99822.31
2022-10-15T08:55:33.392Z,99819.47
2022-10-15T08:58:08.012Z,99832.66
2022-10-15T09:00:38.575Z,99837.56
2022-10-15T09:03:16.036Z,99835.28
2022-10-15T09:05:51.934Z,99844.13
2022-10-15T09:08:29.658Z,99849.03
2022-10-15T09:11:02.480Z,99842.56
2022-10-15T09:13:34.714Z,99849.38
2022-10-15T09:16:11.738Z,99843.63
2022-10-15T09:18:42.846Z,99840.91
2022-10-15T09:21:13.105Z,99852.16
2022-10-15T09:23:43.629Z,99838.72
2022-10-15T09:26:27.016Z,99855.69
2022-10-15T09:29:04.307Z,99838.75
2022-10-15T09:31:37.427Z,99838.50
2022-10-15T09:34:12.712Z,99837.72
2022-10-15T09:36:48.177Z,99827.31
2022-10-15T09:39:35.851Z,99831.38
2022-10-15T09:42:14.910Z,99836.63
2022-10-15T09:44:45.682Z,99838.19
2022-10-15T09:47:23.510Z,99843.75
2022-10-15T09:49:51.374Z,99841.53
2022-10-15T09:52:30.972Z,99839.06
2022-10-15T09:55:08.194Z,99852.78
2022-10-15T09:57:38.689Z,99848.16
2022-10-15T10:00:10.600Z,99840.47
2022-10-15T10:02:38.624Z,99850.59
2022-10-15T10:05:22.347Z,99847.06
2022-10-15T10:07:51.548Z,99844.31
2022-10-15T10:10:26.480Z,99842.09
2022-10-15T10:12:57.078Z,99829.50
2022-10-15T10:15:34.144Z,99832.53
2022-10-15T10:18:05.353Z,99832.78
2022-10-15T10:20:34.868Z,99839.38
2022-10-15T10:23:23.426Z,99837.97
2022-10-15T10:25:51.579Z,99840.13
2022-10-15T10:28:27.901Z,99851.41
2022-10-15T10:31:03.808Z,99842.25
2022-10-15T10:33:35.143Z,99848.56
2022-10-15T10:36:03.259Z,99854.94
2022-10-15T10:38:34.222Z,99850.53
2022-10-15T10:41:08.534Z,99838.22
2022-10-15T10:43:39.501Z,99848.69
2022-10-15T10:46:18.958Z,99842.13
2022-10-15T10:48:48.649Z,99844.31
2022-10-15T10:51:19.510Z,99843.22
2022-10-15T10:53:55.457Z,99844.84
2022-10-15T10:56:26.622Z,99844.59
2022-10-15T10:59:01.185Z,99845.97
2022-10-15T11:01:30.121Z,99856.66
2022-10-15T11:03:57.932Z,99859.38
2022-10-15T11:06:46.144Z,99847.56
2022-10-15T11:09:33.075Z,99848.66
2022-10-15T11:12:15.514Z,99848.41
2022-10-15T11:14:49.840Z,99835.78
2022-10-15T11:17:26.426Z,99840.75
2022-10-15T11:23:00.700Z,99822.34
2022-10-15T11:25:42.736Z,99829.78
2022-10-15T11:28:23.820Z,99811.66
2022-10-15T11:31:00.843Z,99805.31
2022-10-15T11:33:52.420Z,99804.50
2022-10-15T11:36:33.608Z,99800.34
2022-10-15T11:39:14.734Z,99807.91
2022-10-15T11:41:52.818Z,99807.78
2022-10-15T11:44:33.245Z,99808.28
2022-10-15T11:47:12.077Z,99804.50
2022-10-15T11:49:50.928Z,99792.59
2022-10-15T11:52:47.465Z,99800.47
2022-10-15T11:55:20.206Z,99786.84
2022-10-15T11:57:54.956Z,99800.25
2022-10-15T12:00:34.268Z,99801.84
2022-10-15T12:03:08.467Z,99804.16
2022-10-15T12:05:40.110Z,99802.75
2022-10-15T12:08:10.720Z,99787.44
2022-10-15T12:11:04.208Z,99794.59
2022-10-15T12:13:40.407Z,99792.88
2022-10-15T12:16:19.804Z,99785.00
2022-10-15T12:18:56.889Z,99791.63
2022-10-15T12:21:37.843Z,99795.47
2022-10-15T12:24:10.530Z,99785.59
2022-10-15T12:26:38.657Z,99782.81
2022-10-15T12:29:21.653Z,99769.09
2022-10-15T12:31:51.963Z,99772.72
2022-10-15T12:34:29.723Z,99776.56
2022-10-15T12:37:06.234Z,99781.75
2022-10-15T12:39:48.031Z,99782.34
2022-10-15T12:42:27.413Z,99778.19
2022-10-15T12:44:57.277Z,99776.81
2022-10-15T12:47:48.273Z,99778.75
2022-10-15T12:50:20.162Z,99764.75
2022-10-15T12:53:00.216Z,99760.91
2022-10-15T12:55:34.159Z,99752.16
2022-10-15T12:58:05.386Z,99761.19
2022-10-15T13:00:42.896Z,99749.69
2022-10-15T13:03:29.728Z,99734.59
2022-10-15T13:06:14.436Z,99744.72
2022-10-15T13:08:46.855Z,99753.53
2022-10-15T13:11:24.444Z,99755.16
2022-10-15T13:13:56.472Z,99742.81
2022-10-15T13:16:25.667Z,99726.06
2022-10-15T13:18:57.127Z,99744.19
2022-10-15T13:21:49.632Z,99738.16
2022-10-15T13:24:20.694Z,99749.66
2022-10-15T13:26:49.042Z,99750.78
2022-10-15T13:29:18.695Z,99740.56
2022-10-15T13:31:48.246Z,99746.38
2022-10-15T13:34:25.473Z,99735.41
2022-10-15T13:36:54.987Z,99751.28
2022-10-15T13:39:29.437Z,99740.03
2022-10-15T13:42:09.361Z,99739.50
2022-10-15T13:44:37.586Z,99744.44
2022-10-15T13:47:25.550Z,99750.22
2022-10-15T13:50:11.329Z,99744.97
2022-10-15T13:52:41.291Z,99741.72
2022-10-15T13:55:18.712Z,99749.31
2022-10-15T13:57:47.470Z,99749.28
2022-10-15T14:00:22.652Z,99749.31
2022-10-15T14:03:15.102Z,99738.88
2022-10-15T14:05:43.261Z,99746.88
2022-10-15T14:08:20.228Z,99750.19
2022-10-15T14:10:49.004Z,99754.81
2022-10-15T14:13:17.462Z,99747.19
2022-10-15T14:15:50.027Z,99747.13
2022-10-15T14:18:29.356Z,99748.50
2022-10-15T14:20:57.243Z,99747.44
2022-10-15T14:23:28.089Z,99745.44
2022-10-15T14:25:59.328Z,99750.13
2022-10-15T14:28:29.043Z,99748.22
2022-10-15T14:30:57.953Z,99741.09
2022-10-15T14:33:48.285Z,99744.94
2022-10-15T14:36:28.172Z,99756.25
2022-10-15T14:38:56.753Z,99765.84
2022-10-15T14:41:28.422Z,99760.91
2022-10-15T14:44:06.054Z,99756.78
2022-10-15T14:46:39.438Z,99759.81
2022-10-15T14:49:23.042Z,99761.44
2022-10-15T14:52:00.841Z,99756.50
2022-10-15T14:54:34.083Z,99768.84
2022-10-15T14:57:02.214Z,99763.66
2022-10-15T14:59:33.887Z,99774.38
2022-10-15T15:02:03.682Z,99774.63
2022-10-15T15:04:39.088Z,99781.50
2022-10-15T15:07:20.045Z,99780.69
2022-10-15T15:09:52.100Z,99778.22
2022-10-15T15:12:26.941Z,99782.31
2022-10-15T15:14:56.534Z,99785.06
2022-10-15T15:17:26.191Z,99788.06
2022-10-15T15:19:57.250Z,99781.50
2022-10-15T15:22:30.665Z,99777.38
2022-10-15T15:25:00.861Z,99778.47
2022-10-15T15:27:31.168Z,99787.00
2022-10-15T15:29:59.098Z,99781.78
2022-10-15T15:32:27.432Z,99794.13
2022-10-15T15:34:58.772Z,99784.22
2022-10-15T15:37:27.709Z,99792.22
2022-10-15T15:39:56.384Z,99788.88
2022-10-15T15:42:26.289Z,99789.44
2022-10-15T15:44:54.358Z,99790.00
2022-10-15T15:47:22.221Z,99785.34
2022-10-15T15:49:50.024Z,99788.91
2022-10-15T15:52:19.182Z,99793.28
2022-10-15T15:54:47.316Z,99796.84
2022-10-15T15:57:15.497Z,99800.69
2022-10-15T15:59:43.449Z,99786.16
2022-10-15T16:02:12.701Z,99791.63
2022-10-15T16:04:40.504Z,99803.44
2022-10-15T16:07:10.386Z,99799.31
2022-10-15T16:09:42.714Z,99796.56
2022-10-15T16:12:10.434Z,99800.13
2022-10-15T16:14:38.395Z,99793.81
2022-10-15T16:17:06.147Z,99802.91
2022-10-15T16:19:34.001Z,99810.28
2022-10-15T16:22:01.896Z,99816.03
2022-10-15T16:24:29.852Z,99825.38
2022-10-15T16:26:59.215Z,99813.59
2022-10-15T16:29:27.074Z,99821.53
2022-10-15T16:31:55.012Z,99819.59
2022-10-15T16:34:23.249Z,99816.84
2022-10-15T16:36:51.044Z,99822.91
2022-10-15T16:39:19.031Z,99809.19
2022-10-15T16:41:46.928Z,99825.38
2022-10-15T16:44:16.169Z,99834.94
2022-10-15T16:46:44.717Z,99833.03
2022-10-15T16:49:12.621Z,99841.25
2022-10-15T16:51:43.476Z,99828.38
2022-10-15T16:54:15.331Z,99840.44
2022-10-15T16:56:45.404Z,99845.94
2022-10-15T16:59:17.103Z,99843.47
2022-10-15T17:01:44.927Z,99849.22
2022-10-15T17:04:12.847Z,99856.88
2022-10-15T17:06:40.690Z,99850.88
2022-10-15T17:09:09.085Z,99860.19
2022-10-15T17:11:38.852Z,99861.00
2022-10-15T17:14:08.520Z,99858.53
2022-10-15T17:16:39.549Z,99869.47
2022-10-15T17:19:08.387Z,99876.09
2022-10-15T17:21:36.767Z,99876.09
2022-10-15T17:24:07.905Z,99873.31
2022-10-15T17:26:38.510Z,99870.06
2022-10-15T17:29:07.574Z,99878.00
2022-10-15T17:31:36.977Z,99886.22
2022-10-15T17:34:06.617Z,99891.97
2022-10-15T17:36:42.159Z,99881.56
2022-10-15T17:39:11.328Z,99882.38
2022-10-15T17:41:39.139Z,99900.47
2022-10-15T17:44:06.976Z,99890.56
2022-10-15T17:46:34.796Z,99895.25
2022-10-15T17:49:04.233Z,99892.50
2022-10-15T17:51:34.685Z,99904.31
2022-10-15T17:54:02.833Z,99899.66
2022-10-15T17:56:32.236Z,99900.75
2022-10-15T17:59:00.938Z,99899.34
2022-10-15T18:01:56.662Z,99910.88
2022-10-15T18:04:20.662Z,99913.88
2022-10-15T18:06:48.809Z,99919.38
2022-10-15T18:09:16.985Z,99924.25
2022-10-15T18:11:46.610Z,99930.25
2022-10-15T18:14:14.533Z,99925.84
2022-10-15T18:16:43.230Z,99927.50
2022-10-15T18:19:11.618Z,99926.09
2022-10-15T18:21:41.941Z,99929.66
2022-10-15T18:24:11.234Z,99909.91
2022-10-15T18:26:39.000Z,99934.88
2022-10-15T18:29:06.987Z,99933.53
2022-10-15T18:31:35.159Z,99926.69
2022-10-15T18:34:03.689Z,99926.94
2022-10-15T18:36:33.227Z,99935.19
2022-10-15T18:39:02.366Z,99928.31
2022-10-15T18:41:33.539Z,99920.94
2022-10-15T18:44:03.364Z,99928.88
2022-10-15T18:46:32.177Z,99936.84
2022-10-15T18:48:59.990Z,99937.69
2022-10-15T18:51:29.393Z,99953.88
2022-10-15T18:53:57.542Z,99936.03
2022-10-15T18:56:26.904Z,99957.94
2022-10-15T18:58:54.896Z,99956.91
2022-10-15T19:01:26.690Z,99937.94
2022-10-15T19:03:54.749Z,99960.47
2022-10-15T19:06:24.625Z,99959.34
2022-10-15T19:08:52.759Z,99959.34
2022-10-15T19:11:20.785Z,99959.94
2022-10-15T19:13:50.173Z,99961.84
2022-10-15T19:16:17.996Z,99967.56
2022-10-15T19:18:45.886Z,99960.47
2022-10-15T19:21:13.728Z,99962.09
2022-10-15T19:23:41.846Z,99964.84
2022-10-15T19:26:10.704Z,99962.41
2022-10-15T19:28:39.171Z,99973.63
2022-10-15T19:31:10.939Z,99970.06
2022-10-15T19:33:38.842Z,99980.50
2022-10-15T19:36:07.132Z,99970.88
2022-10-15T19:38:35.088Z,99967.63
2022-10-15T19:41:04.934Z,99964.84
2022-10-15T19:43:32.862Z,99964.31
2022-10-15T19:46:04.572Z,99952.56
2022-10-15T19:48:33.745Z,99978.28
2022-10-15T19:51:02.761Z,99980.75
2022-10-15T19:53:32.129Z,99986.75
2022-10-15T19:56:07.370Z,99983.50
2022-10-15T19:58:35.766Z,99988.41
2022-10-15T20:01:05.348Z,99997.19
2022-10-15T20:06:06.602Z,100013.66
2022-10-15T20:08:34.564Z,100020.47
2022-10-15T20:11:02.358Z,100014.75
2022-10-15T20:13:30.404Z,100022.69
2022-10-15T20:16:03.607Z,100019.63
2022-10-15T20:18:32.441Z,100027.56
2022-10-15T20:21:07.052Z,100027.84
2022-10-15T20:23:35.091Z,100017.47
2022-10-15T20:26:05.530Z,100010.00
2022-10-15T20:28:35.863Z,100007.53
2022-10-15T20:31:06.217Z,100009.75
2022-10-15T20:33:34.247Z,100017.16
2022-10-15T20:36:08.070Z,100014.41
2022-10-15T20:38:37.734Z,100025.91
2022-10-15T20:41:10.823Z,100022.88
2022-10-15T20:43:39.138Z,100031.44
2022-10-15T20:46:09.230Z,100019.63
2022-10-15T20:48:39.592Z,100023.41
2022-10-15T20:51:10.479Z,100023.16
2022-10-15T20:53:39.019Z,100030.78
2022-10-15T20:56:07.778Z,100037.28
2022-10-15T20:58:35.796Z,100047.13
2022-10-15T21:01:03.870Z,100059.47
2022-10-15T21:03:31.903Z,100051.22
2022-10-15T21:06:00.100Z,100062.63
2022-10-15T21:08:29.465Z,100061.88
2022-10-15T21:11:02.792Z,100063.41
2022-10-15T21:13:30.985Z,100072.09
2022-10-15T21:16:00.120Z,100058.66
2022-10-15T21:18:28.133Z,100053.44
2022-10-15T21:20:56.630Z,100064.34
2022-10-15T21:23:24.423Z,100072.91
2022-10-15T21:25:53.528Z,100069.25
2022-10-15T21:28:21.430Z,100070.00
2022-10-15T21:30:49.302Z,100085.06
2022-10-15T21:33:17.101Z,100091.56
2022-10-15T21:35:44.834Z,100091.84
2022-10-15T21:38:12.597Z,100085.72
2022-10-15T21:40:40.398Z,100077.53
2022-10-15T21:43:09.658Z,100077.22
2022-10-15T21:45:38.222Z,100073.22
2022-10-15T21:48:06.640Z,100076.78
2022-10-15T21:50:34.448Z,100087.09
2022-10-15T21:53:03.623Z,100093.38
2022-10-15T21:55:31.482Z,100095.53
2022-10-15T21:57:59.215Z,100099.81
2022-10-15T22:00:29.341Z,100112.66
2022-10-15T22:02:57.054Z,100099.22
2022-10-15T22:05:24.862Z,100109.59
2022-10-15T22:07:52.689Z,100124.66
2022-10-15T22:10:20.483Z,100125.84
2022-10-15T22:12:52.209Z,100117.63
2022-10-15T22:15:20.022Z,100126.66
2022-10-15T22:17:49.151Z,100133.50
2022-10-15T22:20:21.375Z,100136.19
2022-10-15T22:22:50.878Z,100133.91
2022-10-15T22:25:18.613Z,100141.53
2022-10-15T22:27:46.427Z,100130.34
2022-10-15T22:30:14.282Z,100143.53
2022-10-15T22:32:42.070Z,100140.19
2022-10-15T22:35:11.259Z,100140.69
2022-10-15T22:37:38.962Z,100131.78
2022-10-15T22:40:07.175Z,100130.88
2022-10-15T22:42:34.864Z,100143.50
2022-10-15T22:45:02.662Z,100138.88
2022-10-15T22:47:30.540Z,100130.63
2022-10-15T22:49:58.489Z,100137.50
2022-10-15T22:52:27.872Z,100141.31
2022-10-15T22:54:55.918Z,100142.78
2022-10-15T22:57:23.658Z,100139.69
2022-10-15T22:59:55.858Z,100141.59
2022-10-15T23:02:27.080Z,100141.59
2022-10-15T23:04:55.246Z,100140.22
2022-10-15T23:07:23.061Z,100112.25
2022-10-15T23:09:52.151Z,100138.00
2022-10-15T23:12:19.956Z,100137.16
2022-10-15T23:14:48.886Z,100134.91
2022-10-15T23:17:16.682Z,100141.81
2022-10-15T23:19:44.464Z,100146.03
2022-10-15T23:22:12.498Z,100152.13
2022-10-15T23:24:40.307Z,100149.72
2022-10-15T23:27:10.254Z,100156.84
2022-10-15T23:29:37.986Z,100160.06
2022-10-15T23:32:06.056Z,100154.00
2022-10-15T23:34:33.754Z,100162.25
2022-10-15T23:37:01.490Z,100157.50
2022-10-15T23:39:29.196Z,100165.66
2022-10-15T23:41:57.030Z,100166.03
2022-10-15T23:44:26.768Z,100162.13
2022-10-15T23:46:54.638Z,100166.91
2022-10-15T23:49:22.400Z,100164.38
2022-10-15T23:51:50.169Z,100179.47
2022-10-15T23:54:19.464Z,100175.13
2022-10-15T23:56:47.984Z,100161.03
2022-10-15T23:59:16.997Z,100171.94
